sensor_id;sensor_type;location;lat;lon;timestamp;P1;durP1;ratioP1;P2;durP2;ratioP2
351;SDS011;164;50.784;6.496;2024-02-26T00:02:22;1.27;;;1.02;;
351;SDS011;164;50.784;6.496;2024-02-26T00:04:50;1.40;;;0.70;;
351;SDS011;164;50.784;6.496;2024-02-26T00:07:18;1.02;;;0.98;;
351;SDS011;164;50.784;6.496;2024-02-26T00:09:45;0.80;;;0.65;;
351;SDS011;164;50.784;6.496;2024-02-26T00:12:13;1.40;;;0.90;;
351;SDS011;164;50.784;6.496;2024-02-26T00:14:40;1.73;;;0.85;;
351;SDS011;164;50.784;6.496;2024-02-26T00:17:07;1.17;;;0.80;;
351;SDS011;164;50.784;6.496;2024-02-26T00:19:35;1.80;;;0.70;;
351;SDS011;164;50.784;6.496;2024-02-26T00:22:02;1.13;;;1.02;;
351;SDS011;164;50.784;6.496;2024-02-26T00:24:30;0.93;;;0.80;;
351;SDS011;164;50.784;6.496;2024-02-26T00:26:58;0.90;;;0.70;;
351;SDS011;164;50.784;6.496;2024-02-26T00:29:26;0.88;;;0.88;;
351;SDS011;164;50.784;6.496;2024-02-26T00:31:52;1.67;;;0.82;;
351;SDS011;164;50.784;6.496;2024-02-26T00:34:19;1.30;;;0.80;;
351;SDS011;164;50.784;6.496;2024-02-26T00:36:46;1.23;;;1.00;;
351;SDS011;164;50.784;6.496;2024-02-26T00:39:13;0.75;;;0.63;;
351;SDS011;164;50.784;6.496;2024-02-26T00:41:42;1.10;;;0.95;;
351;SDS011;164;50.784;6.496;2024-02-26T00:44:09;1.08;;;1.00;;
351;SDS011;164;50.784;6.496;2024-02-26T00:46:36;2.88;;;1.05;;
351;SDS011;164;50.784;6.496;2024-02-26T00:49:03;1.70;;;1.10;;
351;SDS011;164;50.784;6.496;2024-02-26T00:51:31;0.75;;;0.65;;
351;SDS011;164;50.784;6.496;2024-02-26T00:53:58;0.80;;;0.70;;
351;SDS011;164;50.784;6.496;2024-02-26T00:56:25;1.15;;;0.88;;
351;SDS011;164;50.784;6.496;2024-02-26T00:58:54;0.90;;;0.80;;
351;SDS011;164;50.784;6.496;2024-02-26T01:01:21;0.90;;;0.80;;
351;SDS011;164;50.784;6.496;2024-02-26T01:03:48;1.27;;;0.80;;
351;SDS011;164;50.784;6.496;2024-02-26T01:06:15;1.40;;;0.80;;
351;SDS011;164;50.784;6.496;2024-02-26T01:08:42;0.90;;;0.77;;
351;SDS011;164;50.784;6.496;2024-02-26T01:11:09;1.10;;;0.68;;
351;SDS011;164;50.784;6.496;2024-02-26T01:13:37;0.93;;;0.68;;
351;SDS011;164;50.784;6.496;2024-02-26T01:16:05;0.90;;;0.60;;
351;SDS011;164;50.784;6.496;2024-02-26T01:18:33;1.05;;;0.85;;
351;SDS011;164;50.784;6.496;2024-02-26T01:21:00;0.65;;;0.55;;
351;SDS011;164;50.784;6.496;2024-02-26T01:23:27;0.90;;;0.70;;
351;SDS011;164;50.784;6.496;2024-02-26T01:25:54;1.25;;;0.75;;
351;SDS011;164;50.784;6.496;2024-02-26T01:28:21;0.88;;;0.77;;
351;SDS011;164;50.784;6.496;2024-02-26T01:30:48;0.80;;;0.60;;
351;SDS011;164;50.784;6.496;2024-02-26T01:33:17;1.08;;;0.80;;
351;SDS011;164;50.784;6.496;2024-02-26T01:35:44;1.38;;;1.15;;
351;SDS011;164;50.784;6.496;2024-02-26T01:38:11;0.70;;;0.70;;
351;SDS011;164;50.784;6.496;2024-02-26T01:40:39;2.13;;;0.95;;
351;SDS011;164;50.784;6.496;2024-02-26T01:43:06;1.00;;;0.63;;
351;SDS011;164;50.784;6.496;2024-02-26T01:45:33;1.13;;;0.68;;
351;SDS011;164;50.784;6.496;2024-02-26T01:48:00;1.17;;;0.80;;
351;SDS011;164;50.784;6.496;2024-02-26T01:50:29;1.58;;;0.80;;
351;SDS011;164;50.784;6.496;2024-02-26T01:52:56;1.13;;;0.55;;
351;SDS011;164;50.784;6.496;2024-02-26T01:55:24;0.60;;;0.55;;
351;SDS011;164;50.784;6.496;2024-02-26T01:57:53;1.40;;;1.00;;
351;SDS011;164;50.784;6.496;2024-02-26T02:00:20;1.75;;;0.80;;
351;SDS011;164;50.784;6.496;2024-02-26T02:02:48;0.70;;;0.60;;
351;SDS011;164;50.784;6.496;2024-02-26T02:05:16;1.00;;;0.65;;
351;SDS011;164;50.784;6.496;2024-02-26T02:07:45;0.75;;;0.50;;
351;SDS011;164;50.784;6.496;2024-02-26T02:10:13;0.88;;;0.82;;
351;SDS011;164;50.784;6.496;2024-02-26T02:12:41;2.25;;;0.82;;
351;SDS011;164;50.784;6.496;2024-02-26T02:15:08;1.58;;;0.90;;
351;SDS011;164;50.784;6.496;2024-02-26T02:17:35;0.57;;;0.50;;
351;SDS011;164;50.784;6.496;2024-02-26T02:20:03;0.65;;;0.52;;
351;SDS011;164;50.784;6.496;2024-02-26T02:22:32;1.23;;;0.57;;
351;SDS011;164;50.784;6.496;2024-02-26T02:24:59;1.30;;;0.60;;
351;SDS011;164;50.784;6.496;2024-02-26T02:27:26;0.70;;;0.60;;
351;SDS011;164;50.784;6.496;2024-02-26T02:29:54;1.17;;;1.05;;
351;SDS011;164;50.784;6.496;2024-02-26T02:32:21;0.90;;;0.75;;
351;SDS011;164;50.784;6.496;2024-02-26T02:34:49;0.80;;;0.70;;
351;SDS011;164;50.784;6.496;2024-02-26T02:37:16;1.15;;;1.00;;
351;SDS011;164;50.784;6.496;2024-02-26T02:39:45;1.67;;;0.75;;
351;SDS011;164;50.784;6.496;2024-02-26T02:42:12;0.90;;;0.75;;
351;SDS011;164;50.784;6.496;2024-02-26T02:44:39;1.05;;;0.50;;
351;SDS011;164;50.784;6.496;2024-02-26T02:47:06;0.57;;;0.43;;
351;SDS011;164;50.784;6.496;2024-02-26T02:49:34;2.33;;;0.98;;
351;SDS011;164;50.784;6.496;2024-02-26T02:52:01;1.30;;;0.82;;
351;SDS011;164;50.784;6.496;2024-02-26T02:54:28;3.03;;;0.75;;
351;SDS011;164;50.784;6.496;2024-02-26T02:56:56;2.50;;;0.60;;
351;SDS011;164;50.784;6.496;2024-02-26T02:59:24;1.45;;;0.75;;
351;SDS011;164;50.784;6.496;2024-02-26T03:01:51;0.70;;;0.65;;
351;SDS011;164;50.784;6.496;2024-02-26T03:04:18;0.80;;;0.77;;
351;SDS011;164;50.784;6.496;2024-02-26T03:06:45;1.33;;;1.00;;
351;SDS011;164;50.784;6.496;2024-02-26T03:09:13;1.52;;;0.98;;
351;SDS011;164;50.784;6.496;2024-02-26T03:11:40;0.80;;;0.70;;
351;SDS011;164;50.784;6.496;2024-02-26T03:14:08;1.17;;;1.05;;
351;SDS011;164;50.784;6.496;2024-02-26T03:16:36;0.80;;;0.75;;
351;SDS011;164;50.784;6.496;2024-02-26T03:19:03;1.02;;;0.80;;
351;SDS011;164;50.784;6.496;2024-02-26T03:21:30;1.05;;;0.57;;
351;SDS011;164;50.784;6.496;2024-02-26T03:23:58;1.02;;;0.68;;
351;SDS011;164;50.784;6.496;2024-02-26T03:26:25;0.77;;;0.68;;
351;SDS011;164;50.784;6.496;2024-02-26T03:28:52;1.02;;;0.60;;
351;SDS011;164;50.784;6.496;2024-02-26T03:31:21;0.60;;;0.40;;
351;SDS011;164;50.784;6.496;2024-02-26T03:33:48;0.80;;;0.70;;
351;SDS011;164;50.784;6.496;2024-02-26T03:36:15;1.45;;;0.90;;
351;SDS011;164;50.784;6.496;2024-02-26T03:38:42;1.88;;;0.70;;
351;SDS011;164;50.784;6.496;2024-02-26T03:41:10;0.77;;;0.70;;
351;SDS011;164;50.784;6.496;2024-02-26T03:43:37;0.68;;;0.50;;
351;SDS011;164;50.784;6.496;2024-02-26T03:46:06;0.50;;;0.40;;
351;SDS011;164;50.784;6.496;2024-02-26T03:48:35;1.35;;;0.82;;
351;SDS011;164;50.784;6.496;2024-02-26T03:51:03;1.10;;;0.65;;
351;SDS011;164;50.784;6.496;2024-02-26T03:53:31;1.25;;;1.00;;
351;SDS011;164;50.784;6.496;2024-02-26T03:55:58;0.93;;;0.60;;
351;SDS011;164;50.784;6.496;2024-02-26T03:58:29;0.70;;;0.60;;
351;SDS011;164;50.784;6.496;2024-02-26T04:00:56;1.00;;;0.60;;
351;SDS011;164;50.784;6.496;2024-02-26T04:03:24;1.50;;;0.85;;
351;SDS011;164;50.784;6.496;2024-02-26T04:05:53;1.27;;;0.52;;
351;SDS011;164;50.784;6.496;2024-02-26T04:08:20;1.35;;;0.88;;
351;SDS011;164;50.784;6.496;2024-02-26T04:10:47;0.98;;;0.80;;
351;SDS011;164;50.784;6.496;2024-02-26T04:13:14;1.25;;;0.90;;
351;SDS011;164;50.784;6.496;2024-02-26T04:15:41;0.73;;;0.65;;
351;SDS011;164;50.784;6.496;2024-02-26T04:18:09;0.60;;;0.50;;
351;SDS011;164;50.784;6.496;2024-02-26T04:20:36;1.20;;;0.75;;
351;SDS011;164;50.784;6.496;2024-02-26T04:23:04;0.65;;;0.50;;
351;SDS011;164;50.784;6.496;2024-02-26T04:25:31;1.02;;;0.73;;
351;SDS011;164;50.784;6.496;2024-02-26T04:27:59;3.35;;;0.73;;
351;SDS011;164;50.784;6.496;2024-02-26T04:30:26;1.55;;;0.50;;
351;SDS011;164;50.784;6.496;2024-02-26T04:32:56;0.93;;;0.60;;
351;SDS011;164;50.784;6.496;2024-02-26T04:35:23;1.45;;;0.90;;
351;SDS011;164;50.784;6.496;2024-02-26T04:37:51;1.60;;;0.60;;
351;SDS011;164;50.784;6.496;2024-02-26T04:40:19;0.73;;;0.50;;
351;SDS011;164;50.784;6.496;2024-02-26T04:42:49;0.60;;;0.50;;
351;SDS011;164;50.784;6.496;2024-02-26T04:45:27;2.97;;;1.08;;
351;SDS011;164;50.784;6.496;2024-02-26T04:47:54;0.70;;;0.60;;
351;SDS011;164;50.784;6.496;2024-02-26T04:50:21;0.90;;;0.80;;
351;SDS011;164;50.784;6.496;2024-02-26T04:52:48;1.23;;;0.70;;
351;SDS011;164;50.784;6.496;2024-02-26T04:55:15;2.45;;;0.70;;
351;SDS011;164;50.784;6.496;2024-02-26T04:57:44;0.85;;;0.70;;
351;SDS011;164;50.784;6.496;2024-02-26T05:00:11;0.40;;;0.32;;
351;SDS011;164;50.784;6.496;2024-02-26T05:02:39;0.80;;;0.70;;
351;SDS011;164;50.784;6.496;2024-02-26T05:05:06;1.25;;;0.68;;
351;SDS011;164;50.784;6.496;2024-02-26T05:07:34;1.00;;;0.82;;
351;SDS011;164;50.784;6.496;2024-02-26T05:10:06;0.82;;;0.63;;
351;SDS011;164;50.784;6.496;2024-02-26T05:12:33;0.90;;;0.90;;
351;SDS011;164;50.784;6.496;2024-02-26T05:15:02;1.30;;;0.80;;
351;SDS011;164;50.784;6.496;2024-02-26T05:17:29;1.45;;;1.20;;
351;SDS011;164;50.784;6.496;2024-02-26T05:19:56;0.90;;;0.85;;
351;SDS011;164;50.784;6.496;2024-02-26T05:22:24;2.00;;;0.70;;
351;SDS011;164;50.784;6.496;2024-02-26T05:24:51;1.30;;;1.00;;
351;SDS011;164;50.784;6.496;2024-02-26T05:27:19;1.05;;;0.80;;
351;SDS011;164;50.784;6.496;2024-02-26T05:29:46;0.50;;;0.45;;
351;SDS011;164;50.784;6.496;2024-02-26T05:32:14;3.05;;;0.65;;
351;SDS011;164;50.784;6.496;2024-02-26T05:34:41;1.40;;;1.25;;
351;SDS011;164;50.784;6.496;2024-02-26T05:37:08;4.88;;;1.23;;
351;SDS011;164;50.784;6.496;2024-02-26T05:39:36;0.80;;;0.65;;
351;SDS011;164;50.784;6.496;2024-02-26T05:42:04;1.50;;;0.75;;
351;SDS011;164;50.784;6.496;2024-02-26T05:44:34;1.05;;;0.95;;
351;SDS011;164;50.784;6.496;2024-02-26T05:47:01;0.70;;;0.60;;
351;SDS011;164;50.784;6.496;2024-02-26T05:49:29;1.60;;;0.95;;
351;SDS011;164;50.784;6.496;2024-02-26T05:51:57;1.75;;;1.00;;
351;SDS011;164;50.784;6.496;2024-02-26T05:54:24;1.35;;;1.25;;
351;SDS011;164;50.784;6.496;2024-02-26T05:56:51;1.27;;;1.00;;
351;SDS011;164;50.784;6.496;2024-02-26T05:59:18;1.00;;;0.80;;
351;SDS011;164;50.784;6.496;2024-02-26T06:01:46;1.05;;;0.90;;
351;SDS011;164;50.784;6.496;2024-02-26T06:04:13;1.52;;;1.00;;
351;SDS011;164;50.784;6.496;2024-02-26T06:06:41;1.30;;;1.20;;
351;SDS011;164;50.784;6.496;2024-02-26T06:09:08;1.50;;;1.17;;
351;SDS011;164;50.784;6.496;2024-02-26T06:11:36;5.45;;;1.30;;
351;SDS011;164;50.784;6.496;2024-02-26T06:14:03;1.10;;;0.98;;
351;SDS011;164;50.784;6.496;2024-02-26T06:16:30;1.23;;;1.10;;
351;SDS011;164;50.784;6.496;2024-02-26T06:18:58;1.25;;;1.00;;
351;SDS011;164;50.784;6.496;2024-02-26T06:21:26;1.33;;;1.25;;
351;SDS011;164;50.784;6.496;2024-02-26T06:23:57;1.30;;;1.00;;
351;SDS011;164;50.784;6.496;2024-02-26T06:26:24;1.40;;;1.40;;
351;SDS011;164;50.784;6.496;2024-02-26T06:28:53;1.75;;;1.38;;
351;SDS011;164;50.784;6.496;2024-02-26T06:31:21;1.55;;;1.50;;
351;SDS011;164;50.784;6.496;2024-02-26T06:33:48;1.92;;;1.55;;
351;SDS011;164;50.784;6.496;2024-02-26T06:36:15;1.33;;;1.33;;
351;SDS011;164;50.784;6.496;2024-02-26T06:38:43;1.98;;;1.30;;
351;SDS011;164;50.784;6.496;2024-02-26T06:41:11;1.10;;;1.00;;
351;SDS011;164;50.784;6.496;2024-02-26T06:43:38;1.67;;;0.98;;
351;SDS011;164;50.784;6.496;2024-02-26T06:46:05;0.88;;;0.80;;
351;SDS011;164;50.784;6.496;2024-02-26T06:48:33;2.47;;;1.60;;
351;SDS011;164;50.784;6.496;2024-02-26T06:51:02;1.40;;;1.25;;
351;SDS011;164;50.784;6.496;2024-02-26T06:53:29;1.30;;;1.20;;
351;SDS011;164;50.784;6.496;2024-02-26T06:55:56;1.10;;;1.10;;
351;SDS011;164;50.784;6.496;2024-02-26T06:58:25;1.70;;;1.25;;
351;SDS011;164;50.784;6.496;2024-02-26T07:00:52;1.50;;;1.40;;
351;SDS011;164;50.784;6.496;2024-02-26T07:03:22;1.08;;;1.02;;
351;SDS011;164;50.784;6.496;2024-02-26T07:05:50;3.28;;;1.70;;
351;SDS011;164;50.784;6.496;2024-02-26T07:08:17;2.85;;;2.67;;
351;SDS011;164;50.784;6.496;2024-02-26T07:10:45;2.50;;;2.35;;
351;SDS011;164;50.784;6.496;2024-02-26T07:13:13;2.30;;;1.88;;
351;SDS011;164;50.784;6.496;2024-02-26T07:15:41;2.92;;;1.50;;
351;SDS011;164;50.784;6.496;2024-02-26T07:18:11;2.70;;;2.50;;
351;SDS011;164;50.784;6.496;2024-02-26T07:20:38;1.85;;;1.75;;
351;SDS011;164;50.784;6.496;2024-02-26T07:23:05;3.22;;;2.55;;
351;SDS011;164;50.784;6.496;2024-02-26T07:25:31;4.10;;;3.25;;
351;SDS011;164;50.784;6.496;2024-02-26T07:27:59;2.58;;;1.88;;
351;SDS011;164;50.784;6.496;2024-02-26T07:30:26;2.47;;;1.98;;
351;SDS011;164;50.784;6.496;2024-02-26T07:32:57;3.05;;;2.40;;
351;SDS011;164;50.784;6.496;2024-02-26T07:35:25;4.13;;;2.50;;
351;SDS011;164;50.784;6.496;2024-02-26T07:37:56;2.92;;;2.20;;
351;SDS011;164;50.784;6.496;2024-02-26T07:40:23;4.07;;;2.70;;
351;SDS011;164;50.784;6.496;2024-02-26T07:42:50;3.45;;;2.90;;
351;SDS011;164;50.784;6.496;2024-02-26T07:45:17;2.50;;;2.17;;
351;SDS011;164;50.784;6.496;2024-02-26T07:47:45;6.00;;;3.42;;
351;SDS011;164;50.784;6.496;2024-02-26T07:50:14;3.40;;;2.78;;
351;SDS011;164;50.784;6.496;2024-02-26T07:52:41;6.93;;;2.45;;
351;SDS011;164;50.784;6.496;2024-02-26T07:55:09;3.85;;;2.80;;
351;SDS011;164;50.784;6.496;2024-02-26T07:57:36;4.30;;;3.22;;
351;SDS011;164;50.784;6.496;2024-02-26T08:00:04;2.75;;;2.38;;
351;SDS011;164;50.784;6.496;2024-02-26T08:02:32;2.33;;;2.13;;
351;SDS011;164;50.784;6.496;2024-02-26T08:05:00;2.50;;;2.13;;
351;SDS011;164;50.784;6.496;2024-02-26T08:07:28;2.97;;;2.30;;
351;SDS011;164;50.784;6.496;2024-02-26T08:09:55;2.20;;;2.00;;
351;SDS011;164;50.784;6.496;2024-02-26T08:12:23;4.00;;;3.30;;
351;SDS011;164;50.784;6.496;2024-02-26T08:14:50;3.85;;;2.20;;
351;SDS011;164;50.784;6.496;2024-02-26T08:17:17;2.20;;;2.08;;
351;SDS011;164;50.784;6.496;2024-02-26T08:19:44;2.42;;;2.22;;
351;SDS011;164;50.784;6.496;2024-02-26T08:22:11;2.28;;;2.08;;
351;SDS011;164;50.784;6.496;2024-02-26T08:24:42;2.28;;;2.13;;
351;SDS011;164;50.784;6.496;2024-02-26T08:27:09;2.78;;;2.65;;
351;SDS011;164;50.784;6.496;2024-02-26T08:29:37;3.13;;;2.60;;
351;SDS011;164;50.784;6.496;2024-02-26T08:32:04;5.50;;;4.20;;
351;SDS011;164;50.784;6.496;2024-02-26T08:34:32;4.07;;;3.33;;
351;SDS011;164;50.784;6.496;2024-02-26T08:36:59;3.28;;;2.80;;
351;SDS011;164;50.784;6.496;2024-02-26T08:39:26;3.17;;;2.97;;
351;SDS011;164;50.784;6.496;2024-02-26T08:41:55;2.00;;;1.88;;
351;SDS011;164;50.784;6.496;2024-02-26T08:44:22;2.35;;;1.80;;
351;SDS011;164;50.784;6.496;2024-02-26T08:46:49;2.75;;;2.17;;
351;SDS011;164;50.784;6.496;2024-02-26T08:49:16;1.85;;;1.70;;
351;SDS011;164;50.784;6.496;2024-02-26T08:51:43;2.33;;;2.13;;
351;SDS011;164;50.784;6.496;2024-02-26T08:54:11;1.85;;;1.73;;
351;SDS011;164;50.784;6.496;2024-02-26T08:56:38;2.63;;;1.73;;
351;SDS011;164;50.784;6.496;2024-02-26T08:59:06;1.45;;;1.38;;
351;SDS011;164;50.784;6.496;2024-02-26T09:01:33;3.00;;;1.85;;
351;SDS011;164;50.784;6.496;2024-02-26T09:04:01;2.00;;;1.70;;
351;SDS011;164;50.784;6.496;2024-02-26T09:06:28;2.10;;;1.95;;
351;SDS011;164;50.784;6.496;2024-02-26T09:08:55;1.70;;;1.60;;
351;SDS011;164;50.784;6.496;2024-02-26T09:11:23;2.20;;;2.00;;
351;SDS011;164;50.784;6.496;2024-02-26T09:13:50;1.90;;;1.80;;
351;SDS011;164;50.784;6.496;2024-02-26T09:16:19;2.85;;;2.17;;
351;SDS011;164;50.784;6.496;2024-02-26T09:18:46;1.67;;;1.52;;
351;SDS011;164;50.784;6.496;2024-02-26T09:21:13;5.95;;;3.47;;
351;SDS011;164;50.784;6.496;2024-02-26T09:23:43;1.90;;;1.75;;
351;SDS011;164;50.784;6.496;2024-02-26T09:26:10;1.60;;;1.50;;
351;SDS011;164;50.784;6.496;2024-02-26T09:28:38;1.55;;;1.45;;
351;SDS011;164;50.784;6.496;2024-02-26T09:31:05;2.38;;;1.70;;
351;SDS011;164;50.784;6.496;2024-02-26T09:33:34;1.92;;;1.58;;
351;SDS011;164;50.784;6.496;2024-02-26T09:36:01;2.15;;;1.77;;
351;SDS011;164;50.784;6.496;2024-02-26T09:38:28;1.70;;;1.30;;
351;SDS011;164;50.784;6.496;2024-02-26T09:40:56;1.90;;;1.75;;
351;SDS011;164;50.784;6.496;2024-02-26T09:43:24;3.25;;;1.95;;
351;SDS011;164;50.784;6.496;2024-02-26T09:45:53;1.92;;;1.77;;
351;SDS011;164;50.784;6.496;2024-02-26T09:48:21;2.45;;;1.85;;
351;SDS011;164;50.784;6.496;2024-02-26T09:50:50;4.20;;;2.05;;
351;SDS011;164;50.784;6.496;2024-02-26T09:53:18;1.70;;;1.30;;
351;SDS011;164;50.784;6.496;2024-02-26T09:55:48;1.88;;;1.75;;
351;SDS011;164;50.784;6.496;2024-02-26T09:58:16;1.58;;;1.52;;
351;SDS011;164;50.784;6.496;2024-02-26T10:00:46;3.30;;;1.67;;
351;SDS011;164;50.784;6.496;2024-02-26T10:03:14;2.75;;;2.00;;
351;SDS011;164;50.784;6.496;2024-02-26T10:05:42;3.95;;;2.45;;
351;SDS011;164;50.784;6.496;2024-02-26T10:08:10;1.73;;;1.63;;
351;SDS011;164;50.784;6.496;2024-02-26T10:10:38;3.25;;;3.10;;
351;SDS011;164;50.784;6.496;2024-02-26T10:13:05;2.63;;;2.42;;
351;SDS011;164;50.784;6.496;2024-02-26T10:15:35;1.73;;;1.63;;
351;SDS011;164;50.784;6.496;2024-02-26T10:18:03;2.45;;;2.35;;
351;SDS011;164;50.784;6.496;2024-02-26T10:20:31;2.65;;;1.80;;
351;SDS011;164;50.784;6.496;2024-02-26T10:22:58;3.10;;;1.88;;
351;SDS011;164;50.784;6.496;2024-02-26T10:25:27;1.63;;;1.55;;
351;SDS011;164;50.784;6.496;2024-02-26T10:27:56;1.85;;;1.75;;
351;SDS011;164;50.784;6.496;2024-02-26T10:30:24;1.88;;;1.83;;
351;SDS011;164;50.784;6.496;2024-02-26T10:32:51;3.20;;;2.28;;
351;SDS011;164;50.784;6.496;2024-02-26T10:35:19;3.08;;;2.88;;
351;SDS011;164;50.784;6.496;2024-02-26T10:37:46;3.05;;;2.15;;
351;SDS011;164;50.784;6.496;2024-02-26T10:40:14;3.67;;;2.50;;
351;SDS011;164;50.784;6.496;2024-02-26T10:42:43;2.38;;;2.17;;
351;SDS011;164;50.784;6.496;2024-02-26T10:45:10;1.92;;;1.83;;
351;SDS011;164;50.784;6.496;2024-02-26T10:47:37;2.20;;;2.05;;
351;SDS011;164;50.784;6.496;2024-02-26T10:50:06;2.50;;;2.30;;
351;SDS011;164;50.784;6.496;2024-02-26T10:52:34;2.38;;;2.20;;
351;SDS011;164;50.784;6.496;2024-02-26T10:55:02;2.95;;;2.75;;
351;SDS011;164;50.784;6.496;2024-02-26T10:57:29;4.88;;;3.65;;
351;SDS011;164;50.784;6.496;2024-02-26T10:59:59;3.90;;;2.97;;
351;SDS011;164;50.784;6.496;2024-02-26T11:02:29;3.85;;;3.42;;
351;SDS011;164;50.784;6.496;2024-02-26T11:04:56;3.17;;;2.30;;
351;SDS011;164;50.784;6.496;2024-02-26T11:07:24;3.08;;;2.63;;
351;SDS011;164;50.784;6.496;2024-02-26T11:09:52;2.53;;;2.35;;
351;SDS011;164;50.784;6.496;2024-02-26T11:12:20;2.95;;;2.05;;
351;SDS011;164;50.784;6.496;2024-02-26T11:14:48;2.85;;;2.42;;
351;SDS011;164;50.784;6.496;2024-02-26T11:17:21;2.75;;;2.58;;
351;SDS011;164;50.784;6.496;2024-02-26T11:19:48;1.92;;;1.80;;
351;SDS011;164;50.784;6.496;2024-02-26T11:22:16;2.03;;;1.90;;
351;SDS011;164;50.784;6.496;2024-02-26T11:24:44;2.40;;;2.20;;
351;SDS011;164;50.784;6.496;2024-02-26T11:27:11;2.60;;;2.40;;
351;SDS011;164;50.784;6.496;2024-02-26T11:29:39;2.17;;;2.03;;
351;SDS011;164;50.784;6.496;2024-02-26T11:32:08;2.22;;;2.08;;
351;SDS011;164;50.784;6.496;2024-02-26T11:34:37;3.80;;;2.80;;
351;SDS011;164;50.784;6.496;2024-02-26T11:37:08;2.40;;;2.20;;
351;SDS011;164;50.784;6.496;2024-02-26T11:39:36;2.55;;;2.35;;
351;SDS011;164;50.784;6.496;2024-02-26T11:42:07;4.07;;;2.47;;
351;SDS011;164;50.784;6.496;2024-02-26T11:44:36;2.55;;;2.38;;
351;SDS011;164;50.784;6.496;2024-02-26T11:47:09;2.60;;;2.40;;
351;SDS011;164;50.784;6.496;2024-02-26T11:49:38;2.15;;;1.98;;
351;SDS011;164;50.784;6.496;2024-02-26T11:52:06;2.60;;;2.42;;
351;SDS011;164;50.784;6.496;2024-02-26T11:54:43;2.40;;;2.15;;
351;SDS011;164;50.784;6.496;2024-02-26T11:57:23;2.63;;;2.42;;
351;SDS011;164;50.784;6.496;2024-02-26T11:59:50;2.30;;;1.80;;
351;SDS011;164;50.784;6.496;2024-02-26T12:05:07;2.10;;;2.00;;
351;SDS011;164;50.784;6.496;2024-02-26T12:07:34;2.38;;;2.17;;
351;SDS011;164;50.784;6.496;2024-02-26T12:13:02;3.05;;;2.72;;
351;SDS011;164;50.784;6.496;2024-02-26T12:15:30;4.40;;;2.80;;
351;SDS011;164;50.784;6.496;2024-02-26T12:17:59;2.85;;;2.53;;
351;SDS011;164;50.784;6.496;2024-02-26T12:20:31;2.75;;;2.58;;
351;SDS011;164;50.784;6.496;2024-02-26T12:22:58;2.90;;;2.70;;
351;SDS011;164;50.784;6.496;2024-02-26T12:25:26;3.97;;;2.75;;
351;SDS011;164;50.784;6.496;2024-02-26T12:27:56;2.75;;;2.55;;
351;SDS011;164;50.784;6.496;2024-02-26T12:30:23;4.55;;;3.17;;
351;SDS011;164;50.784;6.496;2024-02-26T12:32:52;2.65;;;2.53;;
351;SDS011;164;50.784;6.496;2024-02-26T12:35:22;3.42;;;2.88;;
351;SDS011;164;50.784;6.496;2024-02-26T12:37:51;5.25;;;3.45;;
351;SDS011;164;50.784;6.496;2024-02-26T12:40:19;3.85;;;3.65;;
351;SDS011;164;50.784;6.496;2024-02-26T12:42:47;4.93;;;3.80;;
351;SDS011;164;50.784;6.496;2024-02-26T12:45:14;3.95;;;3.78;;
351;SDS011;164;50.784;6.496;2024-02-26T12:47:42;3.70;;;3.25;;
351;SDS011;164;50.784;6.496;2024-02-26T12:50:10;3.40;;;3.20;;
351;SDS011;164;50.784;6.496;2024-02-26T12:52:38;3.45;;;3.20;;
351;SDS011;164;50.784;6.496;2024-02-26T12:55:08;3.72;;;2.70;;
351;SDS011;164;50.784;6.496;2024-02-26T12:57:36;3.13;;;2.70;;
351;SDS011;164;50.784;6.496;2024-02-26T13:00:04;7.07;;;2.85;;
351;SDS011;164;50.784;6.496;2024-02-26T13:02:34;2.42;;;2.22;;
351;SDS011;164;50.784;6.496;2024-02-26T13:05:02;3.45;;;2.80;;
351;SDS011;164;50.784;6.496;2024-02-26T13:07:30;2.63;;;2.30;;
351;SDS011;164;50.784;6.496;2024-02-26T13:09:58;3.65;;;2.78;;
351;SDS011;164;50.784;6.496;2024-02-26T13:12:26;2.83;;;2.17;;
351;SDS011;164;50.784;6.496;2024-02-26T13:15:00;2.67;;;2.20;;
351;SDS011;164;50.784;6.496;2024-02-26T13:17:27;2.20;;;2.00;;
351;SDS011;164;50.784;6.496;2024-02-26T13:19:58;3.13;;;2.30;;
351;SDS011;164;50.784;6.496;2024-02-26T13:22:25;2.72;;;2.53;;
351;SDS011;164;50.784;6.496;2024-02-26T13:24:55;3.00;;;2.30;;
351;SDS011;164;50.784;6.496;2024-02-26T13:27:23;2.97;;;2.78;;
351;SDS011;164;50.784;6.496;2024-02-26T13:30:02;2.00;;;1.90;;
351;SDS011;164;50.784;6.496;2024-02-26T13:32:31;2.53;;;2.03;;
351;SDS011;164;50.784;6.496;2024-02-26T13:35:05;2.60;;;2.20;;
351;SDS011;164;50.784;6.496;2024-02-26T13:37:32;3.55;;;2.42;;
351;SDS011;164;50.784;6.496;2024-02-26T13:40:00;3.17;;;2.00;;
351;SDS011;164;50.784;6.496;2024-02-26T13:42:29;1.92;;;1.70;;
351;SDS011;164;50.784;6.496;2024-02-26T13:44:56;3.85;;;2.42;;
351;SDS011;164;50.784;6.496;2024-02-26T13:47:25;2.55;;;2.20;;
351;SDS011;164;50.784;6.496;2024-02-26T13:49:52;2.38;;;1.75;;
351;SDS011;164;50.784;6.496;2024-02-26T13:52:19;2.22;;;1.98;;
351;SDS011;164;50.784;6.496;2024-02-26T13:54:47;5.70;;;2.30;;
351;SDS011;164;50.784;6.496;2024-02-26T13:57:14;2.38;;;2.15;;
351;SDS011;164;50.784;6.496;2024-02-26T13:59:42;1.90;;;1.58;;
351;SDS011;164;50.784;6.496;2024-02-26T14:02:09;2.33;;;2.00;;
351;SDS011;164;50.784;6.496;2024-02-26T14:04:38;2.78;;;2.63;;
351;SDS011;164;50.784;6.496;2024-02-26T14:07:05;3.42;;;2.13;;
351;SDS011;164;50.784;6.496;2024-02-26T14:09:32;1.88;;;1.83;;
351;SDS011;164;50.784;6.496;2024-02-26T14:12:02;4.40;;;3.03;;
351;SDS011;164;50.784;6.496;2024-02-26T14:14:29;4.93;;;2.72;;
351;SDS011;164;50.784;6.496;2024-02-26T14:17:00;2.78;;;2.53;;
351;SDS011;164;50.784;6.496;2024-02-26T14:19:28;3.95;;;1.90;;
351;SDS011;164;50.784;6.496;2024-02-26T14:21:57;2.63;;;2.00;;
351;SDS011;164;50.784;6.496;2024-02-26T14:24:24;2.63;;;2.03;;
351;SDS011;164;50.784;6.496;2024-02-26T14:26:51;2.40;;;2.25;;
351;SDS011;164;50.784;6.496;2024-02-26T14:29:19;4.10;;;2.38;;
351;SDS011;164;50.784;6.496;2024-02-26T14:31:46;1.88;;;1.75;;
351;SDS011;164;50.784;6.496;2024-02-26T14:34:14;2.35;;;2.10;;
351;SDS011;164;50.784;6.496;2024-02-26T14:36:43;2.42;;;2.08;;
351;SDS011;164;50.784;6.496;2024-02-26T14:39:12;3.20;;;2.00;;
351;SDS011;164;50.784;6.496;2024-02-26T14:41:39;5.95;;;2.50;;
351;SDS011;164;50.784;6.496;2024-02-26T14:44:07;2.53;;;2.03;;
351;SDS011;164;50.784;6.496;2024-02-26T14:46:35;5.53;;;2.97;;
351;SDS011;164;50.784;6.496;2024-02-26T14:49:03;2.50;;;2.40;;
351;SDS011;164;50.784;6.496;2024-02-26T14:51:30;3.25;;;2.10;;
351;SDS011;164;50.784;6.496;2024-02-26T14:53:57;4.60;;;2.42;;
351;SDS011;164;50.784;6.496;2024-02-26T14:56:27;2.80;;;2.60;;
351;SDS011;164;50.784;6.496;2024-02-26T14:58:54;3.47;;;2.80;;
351;SDS011;164;50.784;6.496;2024-02-26T15:01:22;2.85;;;2.70;;
351;SDS011;164;50.784;6.496;2024-02-26T15:03:50;3.10;;;2.90;;
351;SDS011;164;50.784;6.496;2024-02-26T15:06:17;3.75;;;2.65;;
351;SDS011;164;50.784;6.496;2024-02-26T15:08:44;3.67;;;2.60;;
351;SDS011;164;50.784;6.496;2024-02-26T15:11:11;2.97;;;2.47;;
351;SDS011;164;50.784;6.496;2024-02-26T15:13:42;3.30;;;2.92;;
351;SDS011;164;50.784;6.496;2024-02-26T15:16:16;5.75;;;3.47;;
351;SDS011;164;50.784;6.496;2024-02-26T15:18:43;3.85;;;2.90;;
351;SDS011;164;50.784;6.496;2024-02-26T15:21:10;4.45;;;3.13;;
351;SDS011;164;50.784;6.496;2024-02-26T15:23:38;4.65;;;3.20;;
351;SDS011;164;50.784;6.496;2024-02-26T15:26:05;3.55;;;3.17;;
351;SDS011;164;50.784;6.496;2024-02-26T15:28:32;3.67;;;2.85;;
351;SDS011;164;50.784;6.496;2024-02-26T15:31:01;5.05;;;3.20;;
351;SDS011;164;50.784;6.496;2024-02-26T15:33:28;5.22;;;3.83;;
351;SDS011;164;50.784;6.496;2024-02-26T15:35:55;4.97;;;4.22;;
351;SDS011;164;50.784;6.496;2024-02-26T15:38:22;6.53;;;4.53;;
351;SDS011;164;50.784;6.496;2024-02-26T15:40:49;6.68;;;4.40;;
351;SDS011;164;50.784;6.496;2024-02-26T15:43:16;8.60;;;5.35;;
351;SDS011;164;50.784;6.496;2024-02-26T15:45:46;6.88;;;6.15;;
351;SDS011;164;50.784;6.496;2024-02-26T15:48:15;8.00;;;7.15;;
351;SDS011;164;50.784;6.496;2024-02-26T15:50:42;7.80;;;7.35;;
351;SDS011;164;50.784;6.496;2024-02-26T15:53:09;11.70;;;8.10;;
351;SDS011;164;50.784;6.496;2024-02-26T15:55:36;17.50;;;13.32;;